createdAt,value
2018-03-19T00:01:33.849Z,94.70
2018-03-19T00:04:01.423Z,94.80
2018-03-19T00:06:29.024Z,94.80
2018-03-19T00:08:56.590Z,94.80
2018-03-19T00:11:24.185Z,94.50
2018-03-19T00:13:51.795Z,94.80
2018-03-19T00:16:20.132Z,95.00
2018-03-19T00:18:48.489Z,95.10
2018-03-19T00:21:16.066Z,95.00
2018-03-19T00:23:43.653Z,94.80
2018-03-19T00:26:11.245Z,94.60
2018-03-19T00:28:38.843Z,94.90
2018-03-19T00:31:06.402Z,94.80
2018-03-19T00:33:34.779Z,94.40
2018-03-19T00:36:02.356Z,94.40
2018-03-19T00:38:29.927Z,94.30
2018-03-19T00:40:57.506Z,94.50
2018-03-19T00:43:25.837Z,94.40
2018-03-19T00:45:53.431Z,94.40
2018-03-19T00:48:21.010Z,94.20
2018-03-19T00:50:51.287Z,94.30
2018-03-19T00:53:18.877Z,94.30
2018-03-19T00:55:47.240Z,94.30
2018-03-19T00:58:14.818Z,94.20
2018-03-19T01:00:42.410Z,94.20
2018-03-19T01:03:09.999Z,94.00
2018-03-19T01:05:38.344Z,94.20
2018-03-19T01:08:05.965Z,94.20
2018-03-19T01:10:33.539Z,94.10
2018-03-19T01:13:01.897Z,94.60
2018-03-19T01:15:29.507Z,94.60
2018-03-19T01:17:57.098Z,94.60
2018-03-19T01:20:25.440Z,94.10
2018-03-19T01:22:53.020Z,94.10
2018-03-19T01:25:20.622Z,94.10
2018-03-19T01:27:48.186Z,94.00
2018-03-19T01:30:15.788Z,94.00
2018-03-19T01:32:43.362Z,94.10
2018-03-19T01:35:10.966Z,93.90
2018-03-19T01:37:38.543Z,93.80
2018-03-19T01:40:06.899Z,93.90
2018-03-19T01:42:34.499Z,93.90
2018-03-19T01:45:02.084Z,93.80
2018-03-19T01:47:29.675Z,93.90
2018-03-19T01:49:57.243Z,93.90
2018-03-19T01:52:36.826Z,93.90
2018-03-19T01:55:04.404Z,94.00
2018-03-19T01:57:31.988Z,94.00
2018-03-19T01:59:59.580Z,94.20
2018-03-19T02:02:27.925Z,94.30
2018-03-19T02:04:55.522Z,94.30
2018-03-19T02:07:23.882Z,94.30
2018-03-19T02:09:51.474Z,94.30
2018-03-19T02:12:19.082Z,93.90
2018-03-19T02:14:46.661Z,93.90
2018-03-19T02:17:14.222Z,94.00
2018-03-19T02:19:41.820Z,94.00
2018-03-19T02:22:09.400Z,94.10
2018-03-19T02:24:36.998Z,94.00
2018-03-19T02:27:04.575Z,94.30
2018-03-19T02:29:32.940Z,94.30
2018-03-19T02:32:00.520Z,94.30
2018-03-19T02:34:28.896Z,94.40
2018-03-19T02:36:57.226Z,94.40
2018-03-19T02:39:24.825Z,94.30
2018-03-19T02:41:54.189Z,94.80
2018-03-19T02:44:21.782Z,94.80
2018-03-19T02:46:49.407Z,94.80
2018-03-19T02:49:16.982Z,94.60
2018-03-19T02:51:44.574Z,94.90
2018-03-19T02:54:12.907Z,95.10
2018-03-19T02:56:41.262Z,94.70
2018-03-19T02:59:08.882Z,95.00
2018-03-19T03:01:36.460Z,95.10
2018-03-19T03:04:04.811Z,95.00
2018-03-19T03:06:33.211Z,95.40
2018-03-19T03:09:01.537Z,95.40
2018-03-19T03:11:29.106Z,95.40
2018-03-19T03:13:56.685Z,95.20
2018-03-19T03:16:24.262Z,95.40
2018-03-19T03:18:51.855Z,95.20
2018-03-19T03:21:19.447Z,95.20
2018-03-19T03:23:47.038Z,95.30
2018-03-19T03:26:14.615Z,95.30
2018-03-19T03:28:42.972Z,95.40
2018-03-19T03:31:10.589Z,95.30
2018-03-19T03:33:38.194Z,94.90
2018-03-19T03:36:05.783Z,95.30
2018-03-19T03:38:33.368Z,95.60
2018-03-19T03:41:00.967Z,95.50
2018-03-19T03:43:28.550Z,95.40
2018-03-19T03:45:58.940Z,95.50
2018-03-19T03:48:26.618Z,95.50
2018-03-19T03:50:55.066Z,95.20
2018-03-19T03:53:22.745Z,95.20
2018-03-19T03:55:50.377Z,95.00
2018-03-19T03:58:17.970Z,94.80
2018-03-19T04:00:45.541Z,94.70
2018-03-19T04:03:13.131Z,94.80
2018-03-19T04:05:40.718Z,94.60
2018-03-19T04:08:08.311Z,94.70
2018-03-19T04:10:35.899Z,94.60
2018-03-19T04:13:04.280Z,94.70
2018-03-19T04:15:32.605Z,94.60
2018-03-19T04:18:00.187Z,94.60
2018-03-19T04:20:27.793Z,94.70
2018-03-19T04:22:55.388Z,94.40
2018-03-19T04:25:22.971Z,94.70
2018-03-19T04:27:50.539Z,94.80
2018-03-19T04:30:18.135Z,94.50
2018-03-19T04:32:45.749Z,94.40
2018-03-19T04:35:13.360Z,94.40
2018-03-19T04:37:40.975Z,94.50
2018-03-19T04:40:08.571Z,94.70
2018-03-19T04:42:36.935Z,94.40
2018-03-19T04:45:05.300Z,94.50
2018-03-19T04:47:52.621Z,94.50
2018-03-19T04:50:20.211Z,94.50
2018-03-19T04:52:48.553Z,94.50
2018-03-19T04:55:16.167Z,94.50
2018-03-19T04:57:43.750Z,94.60
2018-03-19T05:00:11.365Z,94.60
2018-03-19T05:02:39.697Z,94.50
2018-03-19T05:05:07.296Z,94.50
2018-03-19T05:07:35.650Z,94.80
2018-03-19T05:10:03.236Z,94.50
2018-03-19T05:12:31.599Z,94.70
2018-03-19T05:14:59.176Z,94.60
2018-03-19T05:17:27.532Z,94.40
2018-03-19T05:19:55.115Z,94.70
2018-03-19T05:22:23.491Z,94.70
2018-03-19T05:24:51.839Z,94.80
2018-03-19T05:27:19.428Z,94.80
2018-03-19T05:29:47.800Z,94.60
2018-03-19T05:32:16.413Z,94.90
2018-03-19T05:34:50.860Z,94.60
2018-03-19T05:37:18.434Z,94.70
2018-03-19T05:39:46.060Z,94.60
2018-03-19T05:42:13.636Z,94.80
2018-03-19T05:44:41.215Z,94.60
2018-03-19T05:47:08.824Z,94.80
2018-03-19T05:49:36.430Z,94.60
2018-03-19T05:52:04.018Z,94.30
2018-03-19T05:54:39.544Z,94.30
2018-03-19T05:57:07.123Z,94.20
2018-03-19T05:59:34.699Z,94.40
2018-03-19T06:02:03.071Z,94.40
2018-03-19T06:04:30.654Z,94.40
2018-03-19T06:06:58.273Z,94.50
2018-03-19T06:09:25.863Z,94.50
2018-03-19T06:11:54.251Z,94.40
2018-03-19T06:14:22.614Z,94.20
2018-03-19T06:16:50.951Z,94.20
2018-03-19T06:19:42.408Z,94.20
2018-03-19T06:22:10.771Z,94.40
2018-03-19T06:24:38.406Z,94.10
2018-03-19T06:27:05.984Z,94.20
2018-03-19T06:29:33.572Z,94.20
2018-03-19T06:32:01.900Z,93.90
2018-03-19T06:34:29.488Z,93.90
2018-03-19T06:36:57.066Z,93.80
2018-03-19T06:39:25.398Z,93.40
2018-03-19T06:41:53.001Z,93.30
2018-03-19T06:44:21.349Z,93.80
2018-03-19T06:46:48.953Z,93.50
2018-03-19T06:49:17.290Z,93.30
2018-03-19T06:51:44.859Z,93.30
2018-03-19T06:54:12.467Z,93.20
2018-03-19T06:56:40.064Z,93.00
2018-03-19T06:59:07.664Z,92.80
2018-03-19T07:01:36.015Z,93.10
2018-03-19T07:04:03.603Z,93.00
2018-03-19T07:06:31.978Z,92.10
2018-03-19T07:09:00.330Z,92.10
2018-03-19T07:11:38.205Z,92.10
2018-03-19T07:14:05.765Z,92.40
2018-03-19T07:16:33.384Z,92.00
2018-03-19T07:19:01.728Z,91.50
2018-03-19T07:21:29.319Z,91.50
2018-03-19T07:23:57.672Z,91.60
2018-03-19T07:26:25.268Z,91.60
2018-03-19T07:28:53.593Z,90.60
2018-03-19T07:31:21.201Z,90.60
2018-03-19T07:33:49.592Z,90.90
2018-03-19T07:36:17.917Z,90.80
2018-03-19T07:38:45.495Z,90.80
2018-03-19T07:41:13.072Z,91.10
2018-03-19T07:43:41.428Z,90.40
2018-03-19T07:46:09.026Z,90.40
2018-03-19T07:51:31.647Z,90.30
2018-03-19T07:53:59.265Z,90.20
2018-03-19T07:56:26.834Z,90.00
2018-03-19T07:58:54.414Z,90.00
2018-03-19T08:01:22.003Z,88.60
2018-03-19T08:03:49.575Z,88.10
2018-03-19T08:06:17.176Z,88.20
2018-03-19T08:08:44.747Z,87.60
2018-03-19T08:11:12.339Z,89.30
2018-03-19T08:13:39.916Z,88.40
2018-03-19T08:16:08.261Z,86.70
2018-03-19T08:18:35.876Z,87.30
2018-03-19T08:21:03.468Z,86.20
2018-03-19T08:23:31.044Z,85.90
2018-03-19T08:25:58.629Z,86.00
2018-03-19T08:28:26.194Z,86.30
2018-03-19T08:30:54.537Z,85.80
2018-03-19T08:33:22.135Z,85.80
2018-03-19T08:35:50.501Z,84.70
2018-03-19T08:38:18.075Z,84.70
2018-03-19T08:40:46.459Z,83.60
2018-03-19T08:43:14.791Z,84.40
2018-03-19T08:45:43.139Z,82.70
2018-03-19T08:48:10.733Z,82.60
2018-03-19T08:50:38.295Z,84.10
2018-03-19T08:53:05.875Z,85.20
2018-03-19T08:55:33.466Z,84.60
2018-03-19T08:58:01.801Z,84.90
2018-03-19T09:00:29.386Z,84.90
2018-03-19T09:02:57.710Z,83.00
2018-03-19T09:05:25.296Z,82.90
2018-03-19T09:07:53.662Z,83.60
2018-03-19T09:10:22.037Z,82.80
2018-03-19T09:12:49.607Z,82.80
2018-03-19T09:15:17.201Z,81.70
2018-03-19T09:17:45.544Z,79.50
2018-03-19T09:20:13.147Z,79.40
2018-03-19T09:22:41.470Z,79.10
2018-03-19T09:25:09.092Z,78.90
2018-03-19T09:27:36.659Z,76.00
2018-03-19T09:30:04.213Z,76.10
2018-03-19T09:32:31.799Z,76.20
2018-03-19T09:35:02.772Z,75.10
2018-03-19T09:37:30.368Z,74.50
2018-03-19T09:39:58.694Z,75.70
2018-03-19T09:42:26.266Z,75.60
2018-03-19T09:44:53.859Z,74.70
2018-03-19T09:47:22.210Z,75.50
2018-03-19T09:49:49.800Z,75.40
2018-03-19T09:52:18.138Z,74.90
2018-03-19T09:54:45.728Z,74.90
2018-03-19T09:57:14.054Z,74.20
2018-03-19T09:59:41.633Z,74.20
2018-03-19T10:02:09.218Z,72.80
2018-03-19T10:04:36.783Z,71.60
2018-03-19T10:07:05.147Z,73.00
2018-03-19T10:09:32.747Z,72.30
2018-03-19T10:12:00.348Z,73.70
2018-03-19T10:14:27.919Z,73.60
2018-03-19T10:16:55.498Z,73.90
2018-03-19T10:19:23.059Z,73.90
2018-03-19T10:22:01.115Z,73.20
2018-03-19T10:24:28.698Z,70.70
2018-03-19T10:26:56.268Z,70.40
2018-03-19T10:29:23.876Z,72.20
2018-03-19T10:31:51.479Z,70.90
2018-03-19T10:34:19.587Z,69.80
2018-03-19T10:36:47.916Z,71.50
2018-03-19T10:39:15.506Z,71.40
2018-03-19T10:41:43.075Z,71.80
2018-03-19T10:44:10.654Z,72.10
2018-03-19T10:46:38.982Z,70.10
2018-03-19T10:49:06.570Z,70.00
2018-03-19T10:51:34.134Z,68.30
2018-03-19T10:54:01.701Z,70.10
2018-03-19T10:56:30.057Z,69.30
2018-03-19T10:58:57.651Z,69.30
2018-03-19T11:01:30.874Z,68.40
2018-03-19T11:04:01.275Z,68.10
2018-03-19T11:06:36.948Z,69.20
2018-03-19T11:09:10.609Z,68.10
2018-03-19T11:11:45.046Z,68.00
2018-03-19T11:14:12.630Z,67.00
2018-03-19T11:16:40.218Z,67.30
2018-03-19T11:19:07.801Z,68.00
2018-03-19T11:21:35.377Z,67.70
2018-03-19T11:24:03.748Z,65.90
2018-03-19T11:26:32.095Z,64.60
2018-03-19T11:28:59.680Z,64.60
2018-03-19T11:31:28.028Z,63.80
2018-03-19T11:33:55.616Z,63.80
2018-03-19T11:36:23.178Z,64.70
2018-03-19T11:38:51.562Z,63.30
2018-03-19T11:41:19.905Z,60.90
2018-03-19T11:43:47.464Z,60.90
2018-03-19T11:46:15.066Z,60.60
2018-03-19T11:48:43.473Z,60.20
2018-03-19T11:51:11.817Z,60.00
2018-03-19T11:53:40.164Z,58.00
2018-03-19T11:56:07.746Z,58.00
2018-03-19T11:58:41.579Z,58.60
2018-03-19T12:01:09.180Z,58.50
2018-03-19T12:03:36.750Z,58.50
2018-03-19T12:06:04.306Z,59.20
2018-03-19T12:08:31.882Z,58.80
2018-03-19T12:10:59.457Z,59.30
2018-03-19T12:13:27.806Z,57.50
2018-03-19T12:15:55.407Z,57.50
2018-03-19T12:18:23.767Z,57.20
2018-03-19T12:20:52.150Z,58.20
2018-03-19T12:23:19.733Z,58.10
2018-03-19T12:25:47.298Z,57.80
2018-03-19T12:28:14.867Z,59.20
2018-03-19T12:30:42.464Z,59.40
2018-03-19T12:33:10.014Z,58.00
2018-03-19T12:35:37.607Z,57.20
2018-03-19T12:38:05.952Z,58.40
2018-03-19T12:40:34.319Z,58.30
2018-03-19T12:43:01.896Z,58.30
2018-03-19T12:45:29.461Z,58.80
2018-03-19T12:47:57.050Z,58.70
2018-03-19T12:50:25.397Z,60.70
2018-03-19T12:52:53.004Z,60.70
2018-03-19T12:55:20.580Z,61.10
2018-03-19T12:57:48.184Z,59.90
2018-03-19T13:00:15.755Z,60.40
2018-03-19T13:02:43.353Z,60.50
2018-03-19T13:05:10.917Z,60.50
2018-03-19T13:07:38.548Z,59.90
2018-03-19T13:10:06.110Z,59.80
2018-03-19T13:12:34.442Z,60.10
2018-03-19T13:15:02.036Z,60.00
2018-03-19T13:17:29.611Z,60.20
2018-03-19T13:19:59.897Z,59.90
2018-03-19T13:22:27.455Z,59.80
2018-03-19T13:24:55.058Z,60.90
2018-03-19T13:27:23.390Z,59.90
2018-03-19T13:29:50.954Z,59.80
2018-03-19T13:32:19.305Z,60.70
2018-03-19T13:34:46.865Z,60.70
2018-03-19T13:37:15.471Z,60.30
2018-03-19T13:39:43.828Z,61.30
2018-03-19T13:42:11.419Z,61.30
2018-03-19T13:44:38.982Z,61.10
2018-03-19T13:47:06.575Z,62.30
2018-03-19T13:49:34.915Z,64.80
2018-03-19T13:52:02.478Z,64.70
2018-03-19T13:54:30.066Z,64.60
2018-03-19T13:56:58.382Z,62.90
2018-03-19T13:59:25.998Z,62.90
2018-03-19T14:01:53.571Z,63.80
2018-03-19T14:04:22.722Z,65.90
2018-03-19T14:06:50.311Z,65.90
2018-03-19T14:09:17.905Z,65.00
2018-03-19T14:11:45.494Z,66.20
2018-03-19T14:14:13.090Z,65.90
2018-03-19T14:16:45.307Z,65.50
2018-03-19T14:19:12.886Z,66.50
2018-03-19T14:21:40.469Z,67.70
2018-03-19T14:24:08.032Z,67.80
2018-03-19T14:26:35.613Z,66.10
2018-03-19T14:29:03.940Z,68.20
2018-03-19T14:31:31.517Z,68.20
2018-03-19T14:33:59.079Z,66.40
2018-03-19T14:36:26.680Z,67.00
2018-03-19T14:38:54.256Z,67.60
2018-03-19T14:41:21.888Z,68.40
2018-03-19T14:43:50.228Z,69.20
2018-03-19T14:46:17.835Z,69.10
2018-03-19T14:48:45.407Z,69.20
2018-03-19T14:51:12.976Z,69.40
2018-03-19T14:53:40.580Z,68.80
2018-03-19T14:56:08.170Z,69.50
2018-03-19T14:58:36.507Z,71.90
2018-03-19T15:01:04.111Z,71.10
2018-03-19T15:03:36.317Z,72.40
2018-03-19T15:06:03.902Z,72.40
2018-03-19T15:08:31.472Z,72.50
2018-03-19T15:11:00.038Z,72.30
2018-03-19T15:13:27.607Z,73.20
2018-03-19T15:15:55.201Z,72.00
2018-03-19T15:18:44.284Z,72.80
2018-03-19T15:21:15.163Z,72.70
2018-03-19T15:23:43.729Z,73.50
2018-03-19T15:26:11.330Z,73.90
2018-03-19T15:28:38.895Z,73.50
2018-03-19T15:31:08.268Z,75.60
2018-03-19T15:33:35.888Z,75.50
2018-03-19T15:36:08.724Z,75.80
2018-03-19T15:38:36.359Z,74.60
2018-03-19T15:41:04.735Z,74.50
2018-03-19T15:43:32.345Z,75.10
2018-03-19T15:46:00.689Z,75.00
2018-03-19T15:48:28.271Z,75.00
2018-03-19T15:50:55.849Z,74.80
2018-03-19T15:53:24.192Z,74.90
2018-03-19T15:56:12.739Z,74.80
2018-03-19T15:58:40.379Z,74.70
2018-03-19T16:01:07.938Z,75.40
2018-03-19T16:03:35.528Z,75.30
2018-03-19T16:06:05.131Z,75.70
2018-03-19T16:08:32.702Z,75.40
2018-03-19T16:11:00.284Z,76.10
2018-03-19T16:13:29.663Z,75.10
2018-03-19T16:15:57.232Z,75.10
2018-03-19T16:18:24.821Z,75.80
2018-03-19T16:21:09.233Z,75.20
2018-03-19T16:23:36.862Z,75.10
2018-03-19T16:26:04.550Z,75.40
2018-03-19T16:28:33.113Z,74.90
2018-03-19T16:31:00.703Z,74.60
2018-03-19T16:33:28.286Z,74.50
2018-03-19T16:35:56.714Z,74.70
2018-03-19T16:38:24.296Z,74.80
2018-03-19T16:40:51.897Z,74.40
2018-03-19T16:43:19.492Z,75.40
2018-03-19T16:45:47.079Z,75.80
2018-03-19T16:48:14.644Z,75.90
2018-03-19T16:50:42.242Z,75.40
2018-03-19T16:53:09.846Z,76.10
2018-03-19T16:55:37.415Z,75.80
2018-03-19T16:58:06.094Z,75.80
2018-03-19T17:00:34.714Z,76.60
2018-03-19T17:03:03.126Z,75.50
2018-03-19T17:05:30.695Z,75.50
2018-03-19T17:07:58.293Z,75.60
2018-03-19T17:10:25.863Z,75.80
2018-03-19T17:13:03.632Z,76.10
2018-03-19T17:15:31.232Z,76.30
2018-03-19T17:17:59.579Z,76.40
2018-03-19T17:20:27.165Z,76.40
2018-03-19T17:22:54.749Z,76.60
2018-03-19T17:25:22.343Z,76.80
2018-03-19T17:27:49.938Z,77.30
2018-03-19T17:30:17.549Z,77.70
2018-03-19T17:32:45.128Z,77.60
2018-03-19T17:35:12.694Z,76.20
2018-03-19T17:37:44.568Z,75.90
2018-03-19T17:40:12.132Z,75.30
2018-03-19T17:42:39.698Z,74.90
2018-03-19T17:45:07.286Z,75.20
2018-03-19T17:47:35.648Z,77.10
2018-03-19T17:50:03.906Z,77.10
2018-03-19T17:52:32.502Z,75.90
2018-03-19T17:55:00.072Z,76.20
2018-03-19T17:57:28.399Z,75.80
2018-03-19T17:59:56.992Z,75.80
2018-03-19T18:02:25.361Z,73.70
2018-03-19T18:04:52.954Z,73.50
2018-03-19T18:07:20.518Z,73.80
2018-03-19T18:09:48.117Z,73.30
2018-03-19T18:12:15.700Z,73.50
2018-03-19T18:14:43.300Z,74.10
2018-03-19T18:17:10.878Z,74.30
2018-03-19T18:19:39.216Z,74.10
2018-03-19T18:22:06.811Z,74.10
2018-03-19T18:24:35.132Z,74.60
2018-03-19T18:27:02.735Z,75.30
2018-03-19T18:29:30.290Z,75.20
2018-03-19T18:31:57.840Z,75.30
2018-03-19T18:34:25.482Z,74.40
2018-03-19T18:36:53.032Z,74.70
2018-03-19T18:39:20.623Z,74.40
2018-03-19T18:41:48.185Z,73.30
2018-03-19T18:44:15.758Z,72.90
2018-03-19T18:46:43.350Z,73.50
2018-03-19T18:52:13.591Z,72.40
2018-03-19T18:54:42.125Z,72.20
2018-03-19T18:57:09.692Z,71.80
2018-03-19T18:59:37.273Z,72.10
2018-03-19T19:02:05.636Z,71.50
2018-03-19T19:04:37.992Z,71.50
2018-03-19T19:07:05.592Z,69.60
2018-03-19T19:09:33.157Z,70.00
2018-03-19T19:12:00.752Z,68.10
2018-03-19T19:14:28.319Z,67.80
2018-03-19T19:16:55.904Z,67.90
2018-03-19T19:19:23.490Z,67.30
2018-03-19T19:21:51.836Z,66.40
2018-03-19T19:24:19.461Z,66.30
2018-03-19T19:26:47.814Z,67.10
2018-03-19T19:29:15.420Z,67.00
2018-03-19T19:31:43.040Z,66.30
2018-03-19T19:34:10.683Z,65.20
2018-03-19T19:36:39.004Z,65.60
2018-03-19T19:39:06.570Z,65.60
2018-03-19T19:41:34.148Z,64.30
2018-03-19T19:44:01.740Z,64.00
2018-03-19T19:46:30.104Z,63.90
2018-03-19T19:48:57.705Z,63.90
2018-03-19T19:51:25.312Z,64.30
2018-03-19T19:53:52.896Z,64.40
2018-03-19T19:56:21.273Z,64.50
2018-03-19T19:58:49.641Z,64.20
2018-03-19T20:01:17.211Z,64.30
2018-03-19T20:03:45.575Z,63.30
2018-03-19T20:06:13.164Z,63.20
2018-03-19T20:08:40.760Z,63.80
2018-03-19T20:11:08.317Z,64.10
2018-03-19T20:13:35.915Z,63.30
2018-03-19T20:16:03.492Z,63.90
2018-03-19T20:18:31.867Z,64.40
2018-03-19T20:21:00.207Z,64.20
2018-03-19T20:23:33.121Z,64.20
2018-03-19T20:26:00.707Z,63.80
2018-03-19T20:28:29.040Z,64.80
2018-03-19T20:30:56.638Z,64.80
2018-03-19T20:33:24.999Z,65.20
2018-03-19T20:35:52.567Z,65.10
2018-03-19T20:38:20.928Z,65.40
2018-03-19T20:40:48.500Z,65.40
2018-03-19T20:43:16.087Z,65.80
2018-03-19T20:45:43.661Z,66.20
2018-03-19T20:48:11.267Z,66.90
2018-03-19T20:50:55.539Z,66.80
2018-03-19T20:53:23.884Z,67.10
2018-03-19T20:55:51.480Z,67.20
2018-03-19T20:58:19.807Z,66.90
2018-03-19T21:00:47.403Z,66.90
2018-03-19T21:03:15.949Z,68.10
2018-03-19T21:05:44.312Z,67.30
2018-03-19T21:08:11.911Z,67.20
2018-03-19T21:10:39.548Z,66.40
2018-03-19T21:13:07.132Z,65.50
2018-03-19T21:15:34.711Z,65.00
2018-03-19T21:18:02.295Z,65.90
2018-03-19T21:20:30.828Z,66.60
2018-03-19T21:22:58.464Z,67.40
2018-03-19T21:25:26.016Z,67.20
2018-03-19T21:27:53.616Z,67.40
2018-03-19T21:30:21.196Z,67.20
2018-03-19T21:32:48.792Z,67.30
2018-03-19T21:35:16.373Z,66.80
2018-03-19T21:37:43.934Z,66.70
2018-03-19T21:40:11.533Z,67.70
2018-03-19T21:42:39.906Z,67.20
2018-03-19T21:50:54.405Z,67.40
2018-03-19T21:53:21.984Z,67.20
2018-03-19T21:55:49.559Z,67.10
2018-03-19T21:58:17.156Z,66.90
2018-03-19T22:00:44.752Z,67.10
2018-03-19T22:03:13.200Z,67.60
2018-03-19T22:05:40.784Z,67.60
2018-03-19T22:08:09.188Z,67.80
2018-03-19T22:10:36.787Z,67.60
2018-03-19T22:13:04.367Z,68.10
2018-03-19T22:15:31.961Z,68.00
2018-03-19T22:18:00.302Z,67.50
2018-03-19T22:20:28.901Z,67.50
2018-03-19T22:22:56.498Z,67.70
2018-03-19T22:25:24.066Z,68.30
2018-03-19T22:27:51.619Z,69.90
2018-03-19T22:30:19.211Z,71.20
2018-03-19T22:32:46.788Z,71.80
2018-03-19T22:35:14.359Z,71.40
2018-03-19T22:37:47.010Z,73.00
2018-03-19T22:40:14.627Z,73.90
2018-03-19T22:42:42.969Z,74.50
2018-03-19T22:45:10.543Z,74.50
2018-03-19T22:47:38.122Z,74.80
2018-03-19T22:50:06.466Z,75.50
2018-03-19T22:52:34.119Z,75.50
2018-03-19T22:55:02.524Z,76.10
2018-03-19T22:57:30.083Z,76.10
2018-03-19T22:59:57.686Z,75.70
2018-03-19T23:02:30.380Z,74.90
2018-03-19T23:08:00.770Z,75.30
2018-03-19T23:10:29.115Z,75.40
2018-03-19T23:12:56.731Z,75.40
2018-03-19T23:15:37.555Z,77.30
2018-03-19T23:18:05.155Z,77.10
2018-03-19T23:20:33.508Z,77.90
2018-03-19T23:23:01.164Z,77.80
2018-03-19T23:25:28.733Z,78.30
2018-03-19T23:27:56.339Z,79.50
2018-03-19T23:30:23.971Z,81.80
2018-03-19T23:32:52.320Z,83.10
2018-03-19T23:35:19.903Z,83.10
2018-03-19T23:37:48.271Z,81.50
2018-03-19T23:40:15.871Z,81.40
2018-03-19T23:42:43.470Z,83.10
2018-03-19T23:45:11.086Z,84.10
2018-03-19T23:47:38.655Z,87.30
2018-03-19T23:50:06.243Z,87.40
2018-03-19T23:55:28.918Z,87.70
2018-03-19T23:57:56.529Z,87.80
